CheckWX is a tool to help pilots better visualize weather data.  It is not intended as a substitute for an official pre-flight weather briefing.

08:16:43 UTC

KMGM METAR
Montgomery Regional (Dannelly Field) Airport
Montgomery, Alabama, USA
Current

24 mins ago

KMGM 140753Z AUTO 09010KT 10SM CLR 04/M03 A3026 RMK AO2 SLP246 T00441028
Observed
Nov-14 @ 07:53 UTC
Wind
  • 090° at 10 KTS
Visibility
10 SM
Flight Rules
VFR
Cloud Levels
  • Clear skies
Temperature
C / 39°F
Dewpoint
-3°C / 27°F
Humidity
61%
Altimeter
30.26" Hg
Pressure
1024.72 hPa
Previous

1 hour ago

KMGM 140653Z AUTO 10007KT 10SM CLR 03/M02 A3027 RMK AO2 SLP250 T00331022
Observed
Nov-14 @ 06:53 UTC
Wind
  • 100° at 7 KTS
Visibility
10 SM
Flight Rules
VFR
Cloud Levels
  • Clear skies
Temperature
C / 37°F
Dewpoint
-2°C / 28°F
Humidity
70%
Altimeter
30.27" Hg
Pressure
1025.02 hPa
Previous

2 hours ago

KMGM 140553Z AUTO 00000KT 10SM CLR 03/M03 A3029 RMK AO2 SLP257 T00331028 10056 20017 401221039 51004
Observed
Nov-14 @ 05:53 UTC
Visibility
10 SM
Flight Rules
VFR
Cloud Levels
  • Clear skies
Temperature
C / 37°F
Dewpoint
-3°C / 27°F
Humidity
65%
Altimeter
30.29" Hg
Pressure
1025.72 hPa